createdAt,value
2022-10-01T00:02:19.293Z,7.12
2022-10-01T00:04:47.056Z,7.06
2022-10-01T00:07:15.333Z,7.02
2022-10-01T00:09:43.237Z,7.09
2022-10-01T00:12:10.989Z,7.08
2022-10-01T00:14:39.497Z,6.97
2022-10-01T00:17:07.417Z,7.03
2022-10-01T00:19:36.629Z,6.86
2022-10-01T00:22:04.650Z,6.88
2022-10-01T00:24:32.585Z,6.85
2022-10-01T00:27:00.447Z,6.79
2022-10-01T00:29:28.297Z,6.80
2022-10-01T00:31:57.208Z,6.83
2022-10-01T00:34:25.321Z,6.79
2022-10-01T00:36:54.660Z,6.80
2022-10-01T00:39:23.550Z,6.81
2022-10-01T00:41:52.570Z,6.95
2022-10-01T00:44:33.238Z,6.88
2022-10-01T00:47:06.368Z,6.83
2022-10-01T00:49:37.954Z,6.87
2022-10-01T00:52:13.148Z,6.87
2022-10-01T00:54:45.757Z,6.93
2022-10-01T00:57:17.668Z,6.94
2022-10-01T00:59:47.336Z,7.04
2022-10-01T01:02:15.264Z,7.06
2022-10-01T01:04:44.767Z,7.00
2022-10-01T01:07:16.181Z,6.86
2022-10-01T01:09:46.772Z,6.83
2022-10-01T01:12:27.375Z,7.10
2022-10-01T01:15:04.847Z,6.89
2022-10-01T01:17:37.882Z,6.88
2022-10-01T01:20:28.783Z,6.95
2022-10-01T01:23:11.157Z,6.98
2022-10-01T01:25:47.214Z,6.81
2022-10-01T01:28:24.271Z,6.87
2022-10-01T01:30:57.923Z,6.88
2022-10-01T01:33:28.665Z,6.93
2022-10-01T01:36:00.932Z,6.88
2022-10-01T01:38:34.448Z,6.88
2022-10-01T01:41:03.652Z,6.93
2022-10-01T01:43:36.243Z,7.01
2022-10-01T01:46:08.667Z,7.27
2022-10-01T01:48:41.673Z,7.28
2022-10-01T01:51:13.361Z,7.31
2022-10-01T01:53:41.943Z,7.14
2022-10-01T01:56:10.671Z,7.16
2022-10-01T01:58:40.437Z,7.16
2022-10-01T02:01:09.112Z,7.04
2022-10-01T02:03:37.449Z,7.09
2022-10-01T02:06:17.696Z,7.25
2022-10-01T02:08:50.480Z,7.25
2022-10-01T02:11:25.732Z,7.32
2022-10-01T02:14:10.778Z,7.37
2022-10-01T02:16:49.674Z,7.31
2022-10-01T02:19:26.116Z,7.17
2022-10-01T02:22:00.041Z,7.20
2022-10-01T02:24:37.372Z,7.22
2022-10-01T02:27:09.566Z,7.04
2022-10-01T02:29:40.758Z,7.01
2022-10-01T02:32:10.522Z,7.07
2022-10-01T02:34:40.227Z,7.14
2022-10-01T02:37:11.742Z,7.18
2022-10-01T02:39:41.936Z,7.35
2022-10-01T02:42:15.162Z,7.44
2022-10-01T02:44:46.554Z,7.42
2022-10-01T02:47:19.473Z,7.47
2022-10-01T02:49:48.829Z,7.44
2022-10-01T02:52:25.657Z,7.42
2022-10-01T02:55:01.404Z,7.35
2022-10-01T02:57:31.212Z,7.26
2022-10-01T03:00:03.638Z,7.36
2022-10-01T03:02:33.011Z,7.41
2022-10-01T03:05:03.557Z,7.58
2022-10-01T03:07:35.482Z,7.66
2022-10-01T03:10:29.984Z,7.71
2022-10-01T03:13:00.109Z,7.77
2022-10-01T03:15:29.708Z,7.63
2022-10-01T03:17:57.494Z,7.74
2022-10-01T03:20:25.409Z,7.75
2022-10-01T03:22:53.383Z,7.73
2022-10-01T03:25:21.226Z,7.87
2022-10-01T03:27:53.428Z,7.89
2022-10-01T03:30:22.089Z,7.81
2022-10-01T03:32:51.297Z,7.88
2022-10-01T03:35:19.118Z,7.88
2022-10-01T03:37:47.631Z,7.85
2022-10-01T03:40:15.589Z,7.77
2022-10-01T03:42:43.413Z,7.70
2022-10-01T03:45:11.437Z,7.75
2022-10-01T03:47:39.326Z,7.85
2022-10-01T03:50:09.479Z,7.89
2022-10-01T03:52:37.327Z,7.70
2022-10-01T03:55:05.832Z,7.78
2022-10-01T03:57:33.601Z,7.92
2022-10-01T04:00:01.696Z,7.97
2022-10-01T04:02:39.488Z,8.00
2022-10-01T04:05:10.084Z,8.08
2022-10-01T04:07:38.128Z,8.04
2022-10-01T04:10:06.877Z,7.99
2022-10-01T04:12:34.750Z,8.14
2022-10-01T04:15:02.606Z,8.00
2022-10-01T04:17:30.471Z,8.05
2022-10-01T04:20:00.193Z,8.14
2022-10-01T04:22:29.562Z,8.11
2022-10-01T04:24:57.385Z,8.15
2022-10-01T04:27:25.911Z,8.09
2022-10-01T04:29:53.682Z,8.05
2022-10-01T04:32:21.580Z,8.13
2022-10-01T04:34:55.053Z,8.12
2022-10-01T04:37:23.853Z,8.10
2022-10-01T04:39:52.986Z,8.10
2022-10-01T04:42:21.338Z,8.05
2022-10-01T04:44:49.718Z,8.09
2022-10-01T04:47:19.242Z,8.02
2022-10-01T04:49:46.958Z,8.03
2022-10-01T04:52:14.703Z,8.02
2022-10-01T04:54:42.541Z,8.01
2022-10-01T04:57:12.228Z,8.07
2022-10-01T04:59:41.447Z,8.11
2022-10-01T05:02:09.960Z,8.28
2022-10-01T05:04:37.760Z,8.16
2022-10-01T05:07:05.775Z,8.09
2022-10-01T05:09:33.533Z,8.28
2022-10-01T05:12:01.514Z,8.17
2022-10-01T05:14:31.243Z,8.30
2022-10-01T05:16:59.088Z,8.25
2022-10-01T05:19:28.949Z,8.27
2022-10-01T05:21:56.794Z,8.39
2022-10-01T05:24:24.832Z,8.32
2022-10-01T05:26:53.984Z,8.30
2022-10-01T05:29:21.771Z,8.24
2022-10-01T05:31:50.931Z,8.25
2022-10-01T05:34:18.807Z,8.27
2022-10-01T05:36:46.692Z,8.35
2022-10-01T05:39:14.884Z,8.33
2022-10-01T05:41:42.670Z,8.30
2022-10-01T05:44:10.544Z,8.29
2022-10-01T05:46:39.024Z,8.42
2022-10-01T05:49:08.293Z,8.44
2022-10-01T05:51:36.658Z,8.46
2022-10-01T05:54:04.922Z,8.38
2022-10-01T05:56:32.700Z,8.48
2022-10-01T05:59:00.606Z,8.64
2022-10-01T06:01:28.576Z,8.62
2022-10-01T06:03:56.466Z,8.65
2022-10-01T06:06:27.540Z,8.66
2022-10-01T06:08:55.506Z,8.87
2022-10-01T06:11:24.155Z,8.80
2022-10-01T06:13:52.542Z,8.88
2022-10-01T06:16:21.346Z,8.92
2022-10-01T06:18:49.731Z,9.05
2022-10-01T06:21:17.493Z,9.09
2022-10-01T06:23:46.609Z,9.07
2022-10-01T06:26:14.419Z,9.13
2022-10-01T06:28:42.272Z,9.14
2022-10-01T06:31:10.317Z,9.13
2022-10-01T06:33:38.427Z,9.28
2022-10-01T06:36:06.964Z,9.31
2022-10-01T06:38:34.966Z,9.24
2022-10-01T06:41:05.119Z,9.40
2022-10-01T06:43:34.025Z,9.40
2022-10-01T06:46:03.657Z,9.32
2022-10-01T06:48:32.330Z,9.43
2022-10-01T06:51:00.430Z,9.35
2022-10-01T06:53:29.230Z,9.34
2022-10-01T06:55:57.364Z,9.51
2022-10-01T06:58:27.162Z,9.58
2022-10-01T07:00:59.895Z,9.45
2022-10-01T07:03:28.194Z,9.58
2022-10-01T07:06:03.189Z,9.71
2022-10-01T07:08:31.100Z,9.67
2022-10-01T07:11:03.470Z,9.57
2022-10-01T07:13:32.823Z,9.59
2022-10-01T07:16:00.644Z,9.69
2022-10-01T07:18:28.432Z,9.70
2022-10-01T07:20:57.948Z,9.72
2022-10-01T07:23:25.759Z,9.85
2022-10-01T07:25:53.646Z,9.84
2022-10-01T07:28:25.456Z,9.85
2022-10-01T07:31:02.979Z,10.02
2022-10-01T07:33:30.946Z,10.12
2022-10-01T07:36:01.507Z,10.03
2022-10-01T07:38:29.491Z,10.04
2022-10-01T07:40:59.038Z,10.17
2022-10-01T07:43:26.894Z,10.15
2022-10-01T07:45:57.936Z,10.24
2022-10-01T07:48:27.699Z,10.19
2022-10-01T07:50:56.474Z,10.35
2022-10-01T07:53:25.042Z,10.43
2022-10-01T07:55:52.871Z,10.45
2022-10-01T07:58:23.851Z,10.53
2022-10-01T08:00:55.841Z,10.62
2022-10-01T08:03:23.833Z,10.57
2022-10-01T08:05:54.609Z,10.66
2022-10-01T08:08:22.430Z,10.80
2022-10-01T08:10:50.632Z,10.83
2022-10-01T08:13:19.132Z,10.89
2022-10-01T08:15:50.378Z,10.97
2022-10-01T08:18:18.427Z,11.00
2022-10-01T08:20:46.708Z,10.98
2022-10-01T08:23:17.366Z,11.00
2022-10-01T08:25:47.688Z,11.02
2022-10-01T08:28:16.313Z,11.15
2022-10-01T08:30:44.311Z,11.29
2022-10-01T08:33:13.450Z,11.18
2022-10-01T08:35:43.448Z,11.28
2022-10-01T08:38:12.181Z,11.28
2022-10-01T08:40:47.164Z,11.49
2022-10-01T08:43:31.368Z,11.38
2022-10-01T08:46:03.971Z,11.34
2022-10-01T08:48:41.003Z,11.35
2022-10-01T08:51:12.474Z,11.38
2022-10-01T08:53:46.158Z,11.47
2022-10-01T08:56:21.418Z,11.51
2022-10-01T08:58:55.643Z,11.71
2022-10-01T09:01:23.656Z,11.72
2022-10-01T09:03:51.734Z,11.72
2022-10-01T09:06:23.029Z,11.89
2022-10-01T09:09:18.534Z,11.90
2022-10-01T09:12:01.080Z,11.94
2022-10-01T09:14:44.944Z,12.06
2022-10-01T09:17:22.109Z,12.20
2022-10-01T09:20:00.567Z,12.28
2022-10-01T09:22:37.855Z,12.31
2022-10-01T09:25:14.415Z,12.24
2022-10-01T09:27:44.384Z,12.31
2022-10-01T09:30:14.911Z,12.45
2022-10-01T09:32:45.973Z,12.55
2022-10-01T09:35:25.925Z,12.68
2022-10-01T09:37:58.264Z,12.77
2022-10-01T09:40:34.444Z,13.02
2022-10-01T09:43:04.330Z,13.04
2022-10-01T09:45:32.232Z,13.03
2022-10-01T09:48:06.270Z,13.13
2022-10-01T09:50:41.050Z,13.01
2022-10-01T09:53:17.580Z,12.67
2022-10-01T09:55:46.991Z,12.49
2022-10-01T09:58:19.611Z,12.43
2022-10-01T10:00:51.649Z,12.35
2022-10-01T10:03:24.098Z,12.37
2022-10-01T10:05:52.258Z,12.46
2022-10-01T10:08:27.710Z,12.36
2022-10-01T10:11:00.484Z,12.28
2022-10-01T10:13:35.001Z,12.19
2022-10-01T10:16:11.098Z,11.92
2022-10-01T10:18:40.994Z,11.83
2022-10-01T10:21:16.297Z,11.79
2022-10-01T10:23:50.277Z,11.84
2022-10-01T10:26:23.500Z,11.78
2022-10-01T10:28:52.718Z,11.64
2022-10-01T10:31:24.175Z,11.42
2022-10-01T10:33:54.302Z,11.34
2022-10-01T10:36:27.250Z,11.19
2022-10-01T10:38:57.194Z,11.10
2022-10-01T10:41:27.045Z,11.03
2022-10-01T10:44:01.245Z,11.00
2022-10-01T10:46:33.821Z,11.00
2022-10-01T10:49:09.111Z,10.92
2022-10-01T10:51:53.699Z,10.81
2022-10-01T10:54:29.269Z,10.78
2022-10-01T10:57:02.406Z,10.72
2022-10-01T10:59:33.965Z,10.70
2022-10-01T11:02:05.316Z,10.81
2022-10-01T11:04:42.818Z,10.74
2022-10-01T11:07:13.345Z,10.84
2022-10-01T11:10:06.289Z,10.77
2022-10-01T11:12:50.234Z,10.68
2022-10-01T11:15:37.380Z,10.60
2022-10-01T11:18:18.705Z,10.68
2022-10-01T11:20:56.102Z,10.65
2022-10-01T11:23:54.932Z,10.62
2022-10-01T11:26:32.112Z,10.73
2022-10-01T11:29:13.372Z,10.71
2022-10-01T11:31:52.256Z,10.71
2022-10-01T11:34:50.537Z,10.68
2022-10-01T11:37:34.042Z,10.72
2022-10-01T11:40:13.562Z,10.75
2022-10-01T11:42:44.132Z,10.79
2022-10-01T11:45:18.460Z,10.82
2022-10-01T11:47:50.084Z,10.92
2022-10-01T11:50:21.334Z,10.87
2022-10-01T11:52:54.858Z,10.82
2022-10-01T11:55:44.433Z,10.88
2022-10-01T11:58:37.369Z,10.81
2022-10-01T12:01:11.829Z,10.87
2022-10-01T12:03:55.939Z,10.91
2022-10-01T12:06:33.016Z,10.82
2022-10-01T12:09:08.818Z,10.84
2022-10-01T12:11:41.657Z,10.82
2022-10-01T12:14:13.398Z,10.87
2022-10-01T12:16:47.882Z,10.99
2022-10-01T12:19:22.455Z,10.97
2022-10-01T12:21:54.211Z,10.91
2022-10-01T12:24:27.419Z,10.99
2022-10-01T12:27:10.289Z,11.03
2022-10-01T12:29:47.509Z,11.00
2022-10-01T12:32:22.883Z,11.09
2022-10-01T12:35:02.315Z,11.10
2022-10-01T12:37:44.598Z,10.98
2022-10-01T12:40:30.556Z,10.81
2022-10-01T12:43:20.774Z,10.70
2022-10-01T12:45:56.999Z,10.63
2022-10-01T12:48:33.351Z,10.60
2022-10-01T12:51:22.279Z,10.58
2022-10-01T12:54:01.151Z,10.62
2022-10-01T12:56:37.897Z,10.56
2022-10-01T12:59:25.639Z,10.53
2022-10-01T13:02:10.919Z,10.45
2022-10-01T13:05:08.109Z,10.51
2022-10-01T13:07:50.733Z,10.53
2022-10-01T13:10:31.170Z,10.50
2022-10-01T13:13:06.426Z,10.47
2022-10-01T13:15:38.196Z,10.47
2022-10-01T13:18:17.269Z,10.55
2022-10-01T13:20:54.152Z,10.64
2022-10-01T13:23:33.230Z,10.68
2022-10-01T13:26:08.615Z,10.60
2022-10-01T13:28:56.080Z,10.68
2022-10-01T13:31:35.608Z,10.66
2022-10-01T13:34:03.704Z,10.80
2022-10-01T13:36:34.256Z,10.69
2022-10-01T13:39:03.664Z,10.76
2022-10-01T13:41:34.832Z,10.80
2022-10-01T13:44:21.894Z,10.89
2022-10-01T13:46:53.390Z,10.98
2022-10-01T13:49:25.236Z,10.96
2022-10-01T13:51:53.687Z,10.95
2022-10-01T13:54:28.689Z,11.05
2022-10-01T13:56:56.666Z,11.03
2022-10-01T13:59:34.605Z,11.07
2022-10-01T14:02:03.380Z,11.08
2022-10-01T14:04:38.585Z,11.20
2022-10-01T14:07:15.246Z,11.19
2022-10-01T14:09:46.793Z,11.10
2022-10-01T14:12:36.390Z,11.11
2022-10-01T14:15:34.638Z,11.17
2022-10-01T14:18:05.326Z,11.22
2022-10-01T14:20:44.813Z,11.24
2022-10-01T14:23:15.062Z,11.31
2022-10-01T14:25:54.212Z,11.32
2022-10-01T14:28:35.109Z,11.36
2022-10-01T14:31:09.613Z,11.37
2022-10-01T14:33:56.167Z,11.41
2022-10-01T14:36:32.422Z,11.46
2022-10-01T14:39:06.416Z,11.51
2022-10-01T14:41:35.874Z,11.48
2022-10-01T14:44:03.692Z,11.41
2022-10-01T14:46:37.186Z,11.33
2022-10-01T14:49:05.520Z,11.28
2022-10-01T14:51:33.329Z,11.49
2022-10-01T14:54:01.596Z,11.42
2022-10-01T14:56:30.384Z,11.43
2022-10-01T14:59:04.038Z,11.54
2022-10-01T15:01:31.968Z,11.65
2022-10-01T15:04:00.081Z,11.69
2022-10-01T15:06:29.981Z,11.75
2022-10-01T15:09:11.645Z,11.63
2022-10-01T15:11:44.462Z,11.73
2022-10-01T15:14:18.868Z,11.77
2022-10-01T15:16:47.245Z,11.82
2022-10-01T15:19:18.461Z,11.84
2022-10-01T15:21:50.921Z,11.90
2022-10-01T15:24:24.986Z,11.86
2022-10-01T15:26:54.914Z,11.94
2022-10-01T15:29:24.700Z,12.02
2022-10-01T15:31:54.784Z,12.07
2022-10-01T15:34:25.235Z,12.01
2022-10-01T15:36:54.437Z,12.07
2022-10-01T15:39:29.819Z,12.11
2022-10-01T15:41:59.018Z,12.06
2022-10-01T15:44:45.861Z,12.10
2022-10-01T15:47:34.753Z,12.04
2022-10-01T15:50:21.499Z,12.11
2022-10-01T15:52:53.734Z,12.05
2022-10-01T15:55:31.460Z,12.12
2022-10-01T15:58:09.405Z,12.21
2022-10-01T16:00:53.593Z,12.15
2022-10-01T16:03:25.926Z,12.18
2022-10-01T16:05:55.824Z,12.21
2022-10-01T16:08:26.759Z,12.22
2022-10-01T16:11:18.284Z,12.11
2022-10-01T16:13:48.699Z,12.12
2022-10-01T16:16:24.915Z,12.11
2022-10-01T16:18:56.135Z,12.12
2022-10-01T16:21:24.949Z,12.08
2022-10-01T16:23:54.251Z,11.91
2022-10-01T16:26:36.101Z,11.92
2022-10-01T16:29:07.106Z,11.99
2022-10-01T16:31:38.258Z,11.95
2022-10-01T16:34:11.896Z,11.94
2022-10-01T16:36:40.472Z,11.85
2022-10-01T16:39:08.720Z,11.85
2022-10-01T16:41:37.538Z,11.82
2022-10-01T16:44:06.092Z,11.83
2022-10-01T16:46:34.388Z,11.84
2022-10-01T16:49:10.438Z,11.77
2022-10-01T16:51:40.222Z,11.72
2022-10-01T16:54:18.929Z,11.78
2022-10-01T16:56:47.205Z,11.74
2022-10-01T16:59:15.089Z,11.71
2022-10-01T17:01:43.390Z,11.74
2022-10-01T17:04:14.376Z,11.63
2022-10-01T17:06:42.443Z,11.58
2022-10-01T17:09:10.230Z,11.54
2022-10-01T17:11:38.909Z,11.47
2022-10-01T17:14:08.736Z,11.44
2022-10-01T17:16:36.963Z,11.45
2022-10-01T17:19:05.134Z,11.41
2022-10-01T17:21:34.285Z,11.50
2022-10-01T17:24:02.958Z,11.53
2022-10-01T17:26:30.952Z,11.41
2022-10-01T17:28:58.951Z,11.45
2022-10-01T17:31:27.396Z,11.35
2022-10-01T17:33:55.306Z,11.30
2022-10-01T17:36:23.102Z,11.39
2022-10-01T17:38:52.402Z,11.37
2022-10-01T17:41:20.170Z,11.56
2022-10-01T17:43:48.021Z,11.56
2022-10-01T17:46:15.955Z,11.59
2022-10-01T17:48:43.828Z,11.65
2022-10-01T17:51:13.451Z,11.69
2022-10-01T17:53:42.873Z,11.61
2022-10-01T17:56:16.039Z,11.67
2022-10-01T17:58:45.582Z,11.76
2022-10-01T18:01:15.636Z,11.82
2022-10-01T18:03:43.631Z,11.73
2022-10-01T18:06:15.157Z,11.77
2022-10-01T18:08:58.426Z,11.71
2022-10-01T18:11:29.182Z,11.79
2022-10-01T18:13:57.037Z,11.83
2022-10-01T18:16:25.865Z,12.02
2022-10-01T18:19:52.309Z,11.90
2022-10-01T18:21:46.130Z,11.85
2022-10-01T18:24:13.997Z,11.85
2022-10-01T18:26:46.611Z,11.95
2022-10-01T18:29:19.263Z,11.94
2022-10-01T18:31:47.175Z,12.00
2022-10-01T18:34:22.914Z,12.03
2022-10-01T18:36:56.707Z,11.97
2022-10-01T18:39:29.646Z,12.12
2022-10-01T18:41:59.393Z,12.26
2022-10-01T18:44:27.552Z,12.26
2022-10-01T18:47:16.704Z,12.33
2022-10-01T18:50:08.350Z,12.31
2022-10-01T18:52:46.745Z,12.35
2022-10-01T18:55:30.425Z,12.30
2022-10-01T18:58:13.637Z,12.32
2022-10-01T19:00:53.249Z,12.39
2022-10-01T19:03:45.839Z,12.39
2022-10-01T19:06:40.585Z,12.44
2022-10-01T19:09:20.179Z,12.43
2022-10-01T19:12:00.262Z,12.42
2022-10-01T19:14:55.852Z,12.42
2022-10-01T19:17:42.441Z,12.44
2022-10-01T19:20:29.970Z,12.43
2022-10-01T19:23:09.724Z,12.49
2022-10-01T19:25:41.925Z,12.46
2022-10-01T19:28:26.188Z,12.49
2022-10-01T19:31:04.714Z,12.50
2022-10-01T19:33:38.325Z,12.49
2022-10-01T19:36:06.784Z,12.49
2022-10-01T19:38:37.821Z,12.45
2022-10-01T19:41:14.766Z,12.50
2022-10-01T19:43:48.887Z,12.44
2022-10-01T19:46:22.772Z,12.40
2022-10-01T19:48:57.190Z,12.42
2022-10-01T19:51:28.661Z,12.43
2022-10-01T19:54:00.907Z,12.40
2022-10-01T19:56:31.359Z,12.31
2022-10-01T19:59:01.774Z,12.39
2022-10-01T20:01:38.695Z,12.24
2022-10-01T20:04:14.654Z,12.18
2022-10-01T20:06:47.114Z,12.15
2022-10-01T20:09:23.241Z,12.15
2022-10-01T20:12:00.011Z,12.07
2022-10-01T20:15:01.515Z,12.02
2022-10-01T20:17:39.322Z,11.95
2022-10-01T20:20:16.760Z,11.95
2022-10-01T20:22:57.674Z,11.94
2022-10-01T20:25:34.399Z,11.81
2022-10-01T20:28:13.717Z,11.81
2022-10-01T20:30:50.775Z,11.76
2022-10-01T20:33:29.693Z,11.76
2022-10-01T20:36:05.353Z,11.67
2022-10-01T20:38:39.280Z,11.70
2022-10-01T20:41:14.706Z,11.70
2022-10-01T20:43:49.259Z,11.59
2022-10-01T20:46:24.246Z,11.57
2022-10-01T20:49:02.048Z,11.55
2022-10-01T20:51:36.945Z,11.56
2022-10-01T20:54:11.177Z,11.55
2022-10-01T20:56:44.864Z,11.51
2022-10-01T20:59:19.148Z,11.47
2022-10-01T21:01:55.228Z,11.43
2022-10-01T21:04:30.269Z,11.40
2022-10-01T21:07:06.414Z,11.41
2022-10-01T21:09:40.692Z,11.40
2022-10-01T21:12:15.141Z,11.41
2022-10-01T21:14:46.256Z,11.38
2022-10-01T21:17:29.459Z,11.33
2022-10-01T21:20:12.733Z,11.34
2022-10-01T21:22:57.424Z,11.24
2022-10-01T21:25:36.450Z,11.14
2022-10-01T21:28:20.796Z,11.27
2022-10-01T21:31:00.203Z,11.17
2022-10-01T21:33:33.937Z,11.17
2022-10-01T21:36:11.923Z,11.21
2022-10-01T21:38:45.161Z,11.29
2022-10-01T21:41:27.827Z,11.29
2022-10-01T21:44:15.156Z,11.20
2022-10-01T21:46:51.410Z,11.16
2022-10-01T21:49:30.657Z,11.07
2022-10-01T21:52:10.691Z,11.17
2022-10-01T21:55:20.485Z,11.12
2022-10-01T21:58:01.788Z,11.14
2022-10-01T22:00:30.628Z,11.05
2022-10-01T22:03:11.013Z,11.04
2022-10-01T22:05:44.652Z,11.11
2022-10-01T22:08:24.885Z,11.08
2022-10-01T22:10:55.453Z,11.08
2022-10-01T22:13:27.991Z,11.07
2022-10-01T22:16:00.115Z,11.08
2022-10-01T22:18:35.187Z,11.11
2022-10-01T22:21:08.066Z,11.15
2022-10-01T22:23:40.884Z,11.02
2022-10-01T22:26:13.760Z,11.07
2022-10-01T22:28:46.702Z,11.10
2022-10-01T22:31:18.106Z,11.10
2022-10-01T22:33:52.512Z,11.11
2022-10-01T22:36:27.115Z,11.11
2022-10-01T22:39:00.956Z,11.10
2022-10-01T22:41:32.240Z,11.10
2022-10-01T22:44:03.285Z,11.02
2022-10-01T22:46:48.347Z,10.99
2022-10-01T22:49:27.696Z,11.01
2022-10-01T22:52:06.805Z,11.07
2022-10-01T22:54:49.195Z,11.06
2022-10-01T22:57:36.384Z,11.00
2022-10-01T23:00:08.503Z,10.90
2022-10-01T23:02:40.976Z,10.99
2022-10-01T23:05:23.642Z,11.04
2022-10-01T23:07:58.365Z,10.98
2022-10-01T23:10:35.269Z,11.00
2022-10-01T23:13:16.269Z,11.01
2022-10-01T23:15:52.163Z,11.01
2022-10-01T23:18:31.685Z,11.02
2022-10-01T23:21:13.045Z,10.94
2022-10-01T23:23:42.988Z,10.85
2022-10-01T23:26:25.917Z,10.89
2022-10-01T23:29:06.501Z,10.76
2022-10-01T23:31:41.261Z,10.79
2022-10-01T23:34:25.149Z,10.88
2022-10-01T23:37:03.169Z,10.83
2022-10-01T23:39:44.297Z,10.87
2022-10-01T23:42:26.955Z,10.89
2022-10-01T23:45:04.081Z,10.96
2022-10-01T23:47:37.192Z,10.87
2022-10-01T23:50:09.346Z,10.88
2022-10-01T23:52:43.265Z,10.88
2022-10-01T23:55:35.801Z,10.87
2022-10-01T23:58:08.048Z,10.92
